Time;durP1;ratioP1;P1;durP2;ratioP2;P2;SDS_P1;SDS_P2;PMS_P1;PMS_P2;Temp;Humidity;BMP_temperature;BMP_pressure;BME280_temperature;BME280_humidity;BME280_pressure;Samples;Min_cycle;Max_cycle;Signal;HPM_P1;HPM_P2
2021/04/18 00:00:37;;;;;;;8.85;4.63;;;4.90;99.90;;;;;;5006540;28;20064;-76
2021/04/18 00:03:03;;;;;;;11.43;4.85;;;4.90;99.90;;;;;;5003947;28;20045;-75
2021/04/18 00:05:29;;;;;;;7.25;4.38;;;4.90;99.90;;;;;;5003103;28;20572;-75
2021/04/18 00:08:04;;;;;;;7.82;4.72;;;4.90;99.90;;;;;;5000211;28;20030;-75
2021/04/18 00:10:35;;;;;;;9.85;4.75;;;4.90;99.90;;;;;;5005731;28;20429;-76
2021/04/18 00:13:02;;;;;;;7.63;4.78;;;4.90;99.90;;;;;;5004263;28;20034;-74
2021/04/18 00:15:28;;;;;;;7.00;4.13;;;4.90;99.90;;;;;;5004017;28;20694;-75
2021/04/18 00:17:53;;;;;;;9.02;5.30;;;4.90;99.90;;;;;;4999677;28;20026;-75
2021/04/18 00:20:20;;;;;;;8.65;5.00;;;4.90;99.90;;;;;;5001876;28;20443;-75
2021/04/18 00:22:45;;;;;;;9.13;5.55;;;4.90;99.90;;;;;;5000668;28;20054;-75
2021/04/18 00:25:14;;;;;;;9.15;4.80;;;4.80;99.90;;;;;;4998577;28;20121;-75
2021/04/18 00:27:42;;;;;;;15.70;5.60;;;4.90;99.90;;;;;;4999643;28;20042;-75
2021/04/18 00:30:11;;;;;;;12.50;5.15;;;4.90;99.90;;;;;;5007820;28;20492;-75
2021/04/18 00:32:38;;;;;;;9.57;5.35;;;4.80;99.90;;;;;;5000603;28;20033;-75
2021/04/18 00:35:06;;;;;;;8.63;5.15;;;4.80;99.90;;;;;;5001725;28;20104;-75
2021/04/18 00:37:32;;;;;;;15.18;4.93;;;4.80;99.90;;;;;;5000259;28;20056;-75
2021/04/18 00:39:58;;;;;;;8.55;4.93;;;4.80;99.90;;;;;;4997802;28;20049;-75
2021/04/18 00:42:23;;;;;;;13.93;5.38;;;4.80;99.90;;;;;;5004261;28;20037;-75
2021/04/18 00:44:49;;;;;;;11.88;5.75;;;4.80;99.90;;;;;;4999141;28;20039;-75
2021/04/18 00:47:17;;;;;;;8.52;5.13;;;4.80;99.90;;;;;;5001793;28;20783;-76
2021/04/18 00:49:44;;;;;;;8.45;5.35;;;4.80;99.90;;;;;;5006703;28;20442;-74
2021/04/18 00:52:10;;;;;;;10.43;4.97;;;4.70;99.90;;;;;;5003683;28;20037;-74
2021/04/18 00:54:35;;;;;;;13.23;5.68;;;4.70;99.90;;;;;;5004590;28;20088;-74
2021/04/18 00:57:01;;;;;;;9.45;5.25;;;4.70;99.90;;;;;;5000079;28;20054;-74
2021/04/18 00:59:27;;;;;;;10.65;4.88;;;4.60;99.90;;;;;;5003789;28;20143;-74
2021/04/18 01:01:53;;;;;;;13.10;5.53;;;4.60;99.90;;;;;;5001375;28;20034;-74
2021/04/18 01:04:18;;;;;;;8.57;5.88;;;4.60;99.90;;;;;;5007427;28;20080;-74
2021/04/18 01:06:44;;;;;;;10.55;5.22;;;4.60;99.90;;;;;;5001007;28;20038;-75
2021/04/18 01:09:09;;;;;;;9.55;4.93;;;4.60;99.90;;;;;;5002108;28;20121;-75
2021/04/18 01:11:35;;;;;;;9.63;5.72;;;4.60;99.90;;;;;;5001556;28;20645;-74
2021/04/18 01:14:00;;;;;;;10.23;5.90;;;4.60;99.90;;;;;;5000667;28;20026;-75
2021/04/18 01:16:26;;;;;;;11.20;5.30;;;4.60;99.90;;;;;;5004705;28;20034;-75
2021/04/18 01:18:51;;;;;;;12.13;5.85;;;4.60;99.90;;;;;;5005512;28;20042;-74
2021/04/18 01:21:17;;;;;;;11.32;5.38;;;4.60;99.90;;;;;;5001342;28;20042;-74
2021/04/18 01:23:42;;;;;;;11.30;5.63;;;4.60;99.90;;;;;;5001940;28;20041;-73
2021/04/18 01:26:08;;;;;;;11.93;5.97;;;4.60;99.90;;;;;;5012613;28;20045;-73
2021/04/18 01:28:34;;;;;;;14.63;5.85;;;4.60;99.90;;;;;;4997750;28;20407;-74
2021/04/18 01:31:02;;;;;;;8.57;5.28;;;4.60;99.90;;;;;;5004940;28;20510;-74
2021/04/18 01:33:28;;;;;;;10.13;6.05;;;4.60;99.90;;;;;;5002037;28;20049;-74
2021/04/18 01:35:54;;;;;;;13.15;6.15;;;4.60;99.90;;;;;;4999290;28;20117;-75
2021/04/18 01:38:20;;;;;;;10.15;6.85;;;4.60;99.90;;;;;;5006031;28;20033;-76
2021/04/18 01:40:46;;;;;;;10.77;5.90;;;4.60;99.90;;;;;;5004144;28;20700;-76
2021/04/18 01:43:16;;;;;;;10.50;5.88;;;4.60;99.90;;;;;;5002362;28;20111;-74
2021/04/18 01:45:42;;;;;;;12.93;6.78;;;4.70;99.90;;;;;;4997251;28;20148;-74
2021/04/18 01:48:09;;;;;;;12.63;7.03;;;4.70;99.90;;;;;;4999422;28;20038;-74
2021/04/18 01:50:43;;;;;;;9.90;6.40;;;4.70;99.90;;;;;;5004343;28;20499;-74
2021/04/18 01:53:09;;;;;;;10.20;5.43;;;4.70;99.90;;;;;;5000330;28;20034;-76
2021/04/18 01:55:36;;;;;;;12.57;6.68;;;4.70;99.90;;;;;;5001568;28;20026;-73
2021/04/18 01:58:02;;;;;;;13.93;6.13;;;4.80;99.90;;;;;;5006441;28;20084;-75
2021/04/18 02:00:27;;;;;;;18.42;6.70;;;4.80;99.90;;;;;;5001063;28;20232;-74
2021/04/18 02:02:53;;;;;;;10.75;7.07;;;4.70;99.90;;;;;;4999795;28;20124;-75
2021/04/18 02:05:20;;;;;;;11.90;6.38;;;4.70;99.90;;;;;;4997040;28;20041;-75
2021/04/18 02:07:45;;;;;;;11.88;6.20;;;4.70;99.90;;;;;;5001847;28;20042;-75
2021/04/18 02:10:11;;;;;;;10.68;6.45;;;4.70;99.90;;;;;;4999653;28;20115;-74
2021/04/18 02:12:37;;;;;;;14.63;7.22;;;4.80;99.90;;;;;;5000209;28;20031;-74
2021/04/18 02:15:04;;;;;;;13.30;6.75;;;4.70;99.90;;;;;;4995725;28;20249;-75
2021/04/18 02:17:29;;;;;;;13.88;6.75;;;4.70;99.90;;;;;;4995855;28;20048;-75
2021/04/18 02:19:55;;;;;;;15.95;6.82;;;4.70;99.90;;;;;;5003835;28;20038;-75
2021/04/18 02:22:20;;;;;;;12.38;6.00;;;4.70;99.90;;;;;;5005371;28;20068;-75
2021/04/18 02:24:46;;;;;;;15.23;6.55;;;4.70;99.90;;;;;;4999796;28;20042;-75
2021/04/18 02:27:12;;;;;;;10.43;6.72;;;4.70;99.90;;;;;;5003808;28;20050;-75
2021/04/18 02:29:37;;;;;;;10.70;6.53;;;4.70;99.90;;;;;;5003883;28;20058;-75
2021/04/18 02:32:03;;;;;;;11.85;5.95;;;4.70;99.90;;;;;;5006997;28;20067;-75
2021/04/18 02:34:29;;;;;;;13.25;6.35;;;4.70;99.90;;;;;;5000957;28;21918;-75
2021/04/18 02:36:54;;;;;;;10.25;6.35;;;4.60;99.90;;;;;;5000425;28;20499;-75
2021/04/18 02:39:20;;;;;;;10.70;6.35;;;4.70;99.90;;;;;;5003372;28;20045;-75
2021/04/18 02:41:45;;;;;;;10.38;6.55;;;4.70;99.90;;;;;;5004777;28;20426;-76
2021/04/18 02:44:11;;;;;;;12.68;7.10;;;4.70;99.90;;;;;;5005000;28;20026;-74
2021/04/18 02:46:37;;;;;;;11.27;6.93;;;4.70;99.90;;;;;;5003943;28;20034;-74
2021/04/18 02:49:03;;;;;;;13.57;7.70;;;4.70;99.90;;;;;;5009479;28;20084;-74
2021/04/18 02:51:30;;;;;;;10.82;6.90;;;4.70;99.90;;;;;;5003478;28;20060;-74
2021/04/18 02:53:59;;;;;;;14.85;7.30;;;4.60;99.90;;;;;;5002633;28;20169;-74
2021/04/18 02:56:25;;;;;;;14.05;6.60;;;4.60;99.90;;;;;;5001623;28;20052;-74
2021/04/18 02:58:51;;;;;;;12.98;7.38;;;4.60;99.90;;;;;;5005368;28;20106;-74
2021/04/18 03:01:16;;;;;;;15.70;8.18;;;4.60;99.90;;;;;;5005849;28;20134;-74
2021/04/18 03:03:42;;;;;;;12.45;7.22;;;4.60;99.90;;;;;;5006125;28;20034;-74
2021/04/18 03:06:07;;;;;;;11.07;6.30;;;4.60;99.90;;;;;;5004362;28;20513;-74
2021/04/18 03:08:33;;;;;;;11.00;6.60;;;4.60;99.90;;;;;;5006611;28;20637;-74
2021/04/18 03:10:59;;;;;;;16.27;7.40;;;4.60;99.90;;;;;;5002558;28;20030;-74
2021/04/18 03:13:24;;;;;;;12.10;7.80;;;4.60;99.90;;;;;;5007393;28;20046;-74
2021/04/18 03:15:50;;;;;;;12.98;7.30;;;4.60;99.90;;;;;;5001222;28;20042;-74
2021/04/18 03:18:15;;;;;;;11.38;7.63;;;4.60;99.90;;;;;;5005430;28;20044;-74
2021/04/18 03:20:41;;;;;;;16.05;7.78;;;4.60;99.90;;;;;;5008986;28;20040;-74
2021/04/18 03:23:06;;;;;;;11.68;6.88;;;4.60;99.90;;;;;;5007502;28;20038;-74
2021/04/18 03:25:32;;;;;;;10.15;6.68;;;4.60;99.90;;;;;;5000368;28;22361;-74
2021/04/18 03:27:58;;;;;;;16.20;7.95;;;4.60;99.90;;;;;;5001755;28;20039;-74
2021/04/18 03:30:23;;;;;;;15.30;7.57;;;4.60;99.90;;;;;;5005430;28;20370;-74
2021/04/18 03:32:49;;;;;;;14.15;7.60;;;4.60;99.90;;;;;;5003088;28;20038;-74
2021/04/18 03:35:15;;;;;;;13.82;7.65;;;4.60;99.90;;;;;;5006610;28;20090;-74
2021/04/18 03:37:40;;;;;;;12.30;7.25;;;4.60;99.90;;;;;;5002394;28;20491;-74
2021/04/18 03:40:07;;;;;;;12.75;7.75;;;4.60;99.90;;;;;;5003956;28;20044;-74
2021/04/18 03:42:32;;;;;;;10.70;6.72;;;4.60;99.90;;;;;;5002428;28;20044;-74
2021/04/18 03:44:58;;;;;;;12.48;7.95;;;4.60;99.90;;;;;;4999471;28;20038;-75
2021/04/18 03:47:23;;;;;;;10.35;7.05;;;4.70;99.90;;;;;;5007925;28;20548;-74
2021/04/18 03:49:49;;;;;;;12.52;7.07;;;4.70;99.90;;;;;;5001665;28;20530;-74
2021/04/18 03:52:14;;;;;;;15.80;8.55;;;4.70;99.90;;;;;;5002149;28;20048;-74
2021/04/18 03:54:40;;;;;;;14.00;6.80;;;4.60;99.90;;;;;;5004671;28;20507;-74
2021/04/18 03:57:06;;;;;;;14.15;9.00;;;4.70;99.90;;;;;;5004300;28;20419;-74
2021/04/18 03:59:32;;;;;;;16.17;8.60;;;4.70;99.90;;;;;;5003149;28;20046;-74
2021/04/18 04:01:57;;;;;;;16.20;8.55;;;4.70;99.90;;;;;;5000337;28;20049;-74
2021/04/18 04:04:23;;;;;;;13.40;7.15;;;4.70;99.90;;;;;;5007364;28;20029;-74
2021/04/18 04:06:49;;;;;;;15.27;8.00;;;4.70;99.90;;;;;;5000465;28;20077;-74
2021/04/18 04:09:14;;;;;;;13.25;7.32;;;4.70;99.90;;;;;;4998835;28;20462;-74
2021/04/18 04:11:41;;;;;;;11.63;7.70;;;4.70;99.90;;;;;;5006858;28;20105;-74
2021/04/18 04:14:06;;;;;;;16.05;7.25;;;4.70;99.90;;;;;;5004387;28;20030;-74
2021/04/18 04:16:32;;;;;;;12.27;7.40;;;4.80;99.90;;;;;;5002771;28;20049;-74
2021/04/18 04:18:57;;;;;;;15.13;7.65;;;4.70;99.90;;;;;;4998840;28;20091;-74
2021/04/18 04:21:23;;;;;;;13.45;8.30;;;4.70;99.90;;;;;;5001586;28;20081;-75
2021/04/18 04:23:49;;;;;;;11.00;7.13;;;4.70;99.90;;;;;;5003128;28;20042;-74
2021/04/18 04:26:14;;;;;;;16.70;8.80;;;4.70;99.90;;;;;;5006443;28;20053;-74
2021/04/18 04:28:40;;;;;;;14.13;8.05;;;4.70;99.90;;;;;;5007889;28;20034;-74
2021/04/18 04:31:05;;;;;;;14.50;8.18;;;4.70;99.90;;;;;;5003296;28;20037;-75
2021/04/18 04:33:37;;;;;;;16.67;8.52;;;4.80;99.90;;;;;;5000966;28;20148;-75
2021/04/18 04:36:04;;;;;;;12.60;7.43;;;4.70;99.90;;;;;;5003795;28;20042;-74
2021/04/18 04:38:30;;;;;;;13.68;8.52;;;4.70;99.90;;;;;;5001619;28;20090;-75
2021/04/18 04:40:56;;;;;;;14.20;8.48;;;4.80;99.90;;;;;;5001936;28;20125;-74
2021/04/18 04:43:21;;;;;;;12.95;8.10;;;4.70;99.90;;;;;;5003911;28;20056;-74
2021/04/18 04:45:47;;;;;;;14.20;8.20;;;4.80;99.90;;;;;;5002891;28;20041;-74
2021/04/18 04:48:12;;;;;;;17.48;8.40;;;4.80;99.90;;;;;;4998960;28;20038;-75
2021/04/18 04:50:38;;;;;;;13.82;8.45;;;4.80;99.90;;;;;;5004147;28;21240;-75
2021/04/18 04:53:04;;;;;;;13.82;8.23;;;4.80;99.90;;;;;;4999305;28;20064;-74
2021/04/18 04:55:29;;;;;;;16.88;9.18;;;4.80;99.90;;;;;;5003078;28;20033;-74
2021/04/18 04:57:55;;;;;;;13.50;8.85;;;4.80;99.90;;;;;;5002786;28;20072;-74
2021/04/18 05:00:21;;;;;;;14.82;9.23;;;4.90;99.90;;;;;;5000445;28;20026;-74
2021/04/18 05:02:46;;;;;;;14.57;8.88;;;4.90;99.90;;;;;;5006139;28;20453;-74
2021/04/18 05:05:12;;;;;;;14.60;8.93;;;4.80;99.90;;;;;;5009998;28;20038;-74
2021/04/18 05:07:38;;;;;;;12.77;8.20;;;4.90;99.90;;;;;;4998985;28;20035;-74
2021/04/18 05:10:04;;;;;;;12.77;8.50;;;4.90;99.90;;;;;;5001478;28;20848;-74
2021/04/18 05:12:30;;;;;;;17.88;8.88;;;4.90;99.90;;;;;;5005846;28;20052;-75
2021/04/18 05:14:55;;;;;;;16.40;8.55;;;4.90;99.90;;;;;;4998083;28;20030;-74
2021/04/18 05:17:21;;;;;;;13.93;8.05;;;4.90;99.90;;;;;;4996511;28;20044;-75
2021/04/18 05:19:46;;;;;;;13.70;8.48;;;5.00;99.90;;;;;;5002051;28;20042;-74
2021/04/18 05:22:12;;;;;;;13.45;6.65;;;5.00;99.90;;;;;;4998660;28;20066;-75
2021/04/18 05:24:37;;;;;;;14.68;8.18;;;5.00;99.90;;;;;;5009999;28;20064;-75
2021/04/18 05:27:03;;;;;;;14.43;8.07;;;5.00;99.90;;;;;;5005180;28;20110;-75
2021/04/18 05:29:29;;;;;;;15.23;7.57;;;5.10;99.90;;;;;;4996042;28;20029;-75
2021/04/18 05:31:55;;;;;;;17.52;8.13;;;5.00;99.90;;;;;;5002900;28;20100;-74
2021/04/18 05:34:21;;;;;;;17.33;7.35;;;5.00;99.90;;;;;;4998231;28;20094;-74
2021/04/18 05:36:47;;;;;;;13.88;7.57;;;5.10;99.90;;;;;;5001085;28;20096;-74
2021/04/18 05:39:12;;;;;;;15.48;7.18;;;5.00;99.90;;;;;;5002754;28;20046;-75
2021/04/18 05:41:38;;;;;;;12.60;8.15;;;5.00;99.90;;;;;;5006512;28;20117;-75
2021/04/18 05:44:07;;;;;;;12.93;7.30;;;5.10;99.90;;;;;;5005885;28;20070;-75
2021/04/18 05:46:33;;;;;;;11.15;6.82;;;5.10;99.90;;;;;;5000212;28;20046;-75
2021/04/18 05:48:58;;;;;;;13.10;8.07;;;5.10;99.90;;;;;;4996848;28;20125;-74
2021/04/18 05:51:24;;;;;;;16.60;8.98;;;5.20;99.90;;;;;;4999634;28;20100;-75
2021/04/18 05:53:49;;;;;;;13.88;7.43;;;5.10;99.90;;;;;;5003139;28;20501;-75
2021/04/18 05:56:15;;;;;;;12.98;7.60;;;5.10;99.90;;;;;;5003421;28;20080;-74
2021/04/18 05:58:41;;;;;;;18.30;7.65;;;5.20;99.90;;;;;;5000870;28;20135;-74
2021/04/18 06:01:06;;;;;;;14.50;8.48;;;5.30;99.90;;;;;;4997052;28;20042;-75
2021/04/18 06:03:32;;;;;;;12.95;8.18;;;5.30;99.90;;;;;;5003219;28;20042;-75
2021/04/18 06:05:57;;;;;;;12.63;7.93;;;5.30;99.90;;;;;;4999796;28;20455;-75
2021/04/18 06:08:23;;;;;;;13.55;8.23;;;5.40;99.90;;;;;;5002108;28;20502;-75
2021/04/18 06:10:48;;;;;;;13.68;8.10;;;5.40;99.90;;;;;;4996890;28;20084;-74
2021/04/18 06:13:14;;;;;;;16.75;7.95;;;5.50;99.90;;;;;;5004062;28;20148;-75
2021/04/18 06:15:40;;;;;;;14.88;8.15;;;5.50;99.90;;;;;;5001360;28;21070;-75
2021/04/18 06:18:06;;;;;;;13.85;8.65;;;5.60;99.90;;;;;;4998093;28;20034;-75
2021/04/18 06:20:31;;;;;;;19.73;8.75;;;5.60;99.90;;;;;;5013796;28;20049;-75
2021/04/18 06:22:57;;;;;;;16.52;8.25;;;5.70;99.90;;;;;;5002596;28;20897;-74
2021/04/18 06:25:22;;;;;;;15.50;8.07;;;5.70;99.90;;;;;;5000462;28;20109;-75
2021/04/18 06:27:48;;;;;;;16.30;7.18;;;5.80;99.90;;;;;;4997307;28;20414;-74
2021/04/18 06:30:14;;;;;;;13.30;7.82;;;5.80;99.90;;;;;;4998900;28;20037;-75
2021/04/18 06:32:40;;;;;;;16.73;7.55;;;5.80;99.90;;;;;;5011415;28;20105;-75
2021/04/18 06:35:07;;;;;;;18.85;8.30;;;5.80;99.90;;;;;;4995591;28;20180;-74
2021/04/18 06:37:33;;;;;;;14.63;8.15;;;5.80;99.90;;;;;;4998455;28;20959;-74
2021/04/18 06:39:59;;;;;;;13.20;8.73;;;6.00;99.90;;;;;;4997861;28;20497;-75
2021/04/18 06:42:25;;;;;;;14.30;8.07;;;6.00;99.90;;;;;;5001370;28;20092;-75
2021/04/18 06:44:52;;;;;;;13.57;8.48;;;6.10;99.90;;;;;;5011857;28;20041;-74
2021/04/18 06:47:17;;;;;;;14.30;8.43;;;6.30;99.90;;;;;;4993056;28;20038;-74
2021/04/18 06:49:43;;;;;;;16.17;8.13;;;6.40;99.90;;;;;;5001889;28;20111;-74
2021/04/18 06:52:11;;;;;;;20.45;8.27;;;6.50;99.90;;;;;;5004299;28;20046;-74
2021/04/18 06:54:37;;;;;;;15.90;8.18;;;6.60;99.90;;;;;;5006057;28;20545;-75
2021/04/18 06:57:03;;;;;;;13.50;7.95;;;6.70;99.90;;;;;;4995468;28;20041;-75
2021/04/18 06:59:28;;;;;;;14.98;8.25;;;6.70;99.90;;;;;;5001025;28;20091;-76
2021/04/18 07:01:54;;;;;;;20.52;8.75;;;6.90;99.90;;;;;;4994344;28;20061;-75
2021/04/18 07:04:22;;;;;;;13.18;8.25;;;6.80;99.90;;;;;;4997419;28;20056;-75
2021/04/18 07:06:57;;;;;;;14.32;8.52;;;6.80;99.90;;;;;;4999607;28;20096;-75
2021/04/18 07:09:25;;;;;;;15.27;8.40;;;7.00;99.90;;;;;;4991638;28;20044;-75
2021/04/18 07:11:56;;;;;;;11.75;7.63;;;6.90;99.90;;;;;;5002062;28;20058;-75
2021/04/18 07:14:34;;;;;;;15.07;9.05;;;7.00;99.90;;;;;;5007058;28;20506;-75
2021/04/18 07:17:07;;;;;;;19.23;7.95;;;7.10;99.90;;;;;;5005208;28;20521;-75
2021/04/18 07:19:34;;;;;;;19.30;9.20;;;7.20;99.90;;;;;;5004035;28;20033;-76
2021/04/18 07:22:01;;;;;;;17.60;8.60;;;7.30;99.90;;;;;;5009493;28;20039;-76
2021/04/18 07:24:28;;;;;;;15.05;8.00;;;7.40;99.90;;;;;;5004635;28;20384;-74
2021/04/18 07:26:59;;;;;;;16.40;8.05;;;7.40;99.90;;;;;;5003982;28;20096;-75
2021/04/18 07:29:26;;;;;;;17.60;8.60;;;7.40;99.90;;;;;;5005643;28;20038;-74
2021/04/18 07:31:53;;;;;;;15.48;9.15;;;7.70;99.90;;;;;;5003291;28;20033;-74
2021/04/18 07:34:22;;;;;;;18.13;7.40;;;7.70;99.90;;;;;;5000070;28;20046;-73
2021/04/18 07:37:10;;;;;;;17.67;8.75;;;7.50;99.90;;;;;;5002965;28;20049;-74
2021/04/18 07:39:44;;;;;;;14.38;8.05;;;7.70;99.90;;;;;;4999191;28;20040;-74
2021/04/18 07:42:28;;;;;;;18.60;8.63;;;7.80;99.90;;;;;;5003557;28;20117;-74
2021/04/18 07:44:55;;;;;;;19.40;8.80;;;7.80;99.90;;;;;;5004079;28;20045;-74
2021/04/18 07:47:22;;;;;;;12.18;7.88;;;8.00;99.90;;;;;;5007068;28;20098;-74
2021/04/18 07:49:48;;;;;;;15.85;8.50;;;7.90;99.90;;;;;;5002803;28;20494;-75
2021/04/18 07:52:16;;;;;;;18.00;8.63;;;7.90;99.90;;;;;;5005307;28;20061;-76
2021/04/18 07:54:43;;;;;;;14.35;8.20;;;7.80;99.90;;;;;;5007912;28;20041;-75
2021/04/18 07:57:08;;;;;;;13.80;8.15;;;7.80;99.90;;;;;;4999417;28;20127;-74
2021/04/18 07:59:34;;;;;;;13.05;8.10;;;7.80;99.90;;;;;;5004310;28;20054;-75
2021/04/18 08:02:00;;;;;;;20.42;8.13;;;8.00;99.90;;;;;;5012455;28;20038;-75
2021/04/18 08:04:27;;;;;;;14.05;7.88;;;8.00;99.90;;;;;;5002290;28;20612;-75
2021/04/18 08:06:53;;;;;;;17.40;7.78;;;7.90;99.90;;;;;;5014534;28;20160;-75
2021/04/18 08:09:23;;;;;;;16.67;8.40;;;7.70;99.90;;;;;;5003734;28;20509;-75
2021/04/18 08:12:08;;;;;;;14.75;8.70;;;7.70;99.90;;;;;;5000457;28;20410;-74
2021/04/18 08:14:34;;;;;;;16.58;7.57;;;7.90;99.90;;;;;;5018172;28;20037;-74
2021/04/18 08:17:17;;;;;;;14.48;8.27;;;7.80;99.90;;;;;;5005046;28;20172;-73
2021/04/18 08:19:55;;;;;;;18.23;9.15;;;7.60;99.90;;;;;;5006341;28;20058;-75
2021/04/18 08:22:21;;;;;;;15.52;7.60;;;7.70;99.90;;;;;;5009649;28;20055;-75
2021/04/18 08:24:47;;;;;;;17.42;6.60;;;7.70;99.90;;;;;;5004356;28;20536;-76
2021/04/18 08:27:13;;;;;;;12.35;6.30;;;7.80;99.70;;;;;;5004124;28;20514;-74
2021/04/18 08:29:58;;;;;;;17.85;7.18;;;7.80;98.30;;;;;;5009925;28;20102;-74
2021/04/18 08:32:42;;;;;;;11.35;6.28;;;7.90;99.00;;;;;;5006622;28;20120;-76
2021/04/18 08:35:17;;;;;;;10.90;4.93;;;8.00;96.00;;;;;;5000690;28;20137;-75
2021/04/18 08:37:43;;;;;;;14.45;6.57;;;8.10;94.70;;;;;;4998457;28;20106;-74
2021/04/18 08:40:09;;;;;;;14.50;6.85;;;8.30;94.40;;;;;;5004719;28;20685;-74
2021/04/18 08:42:36;;;;;;;12.43;6.57;;;8.30;93.50;;;;;;5005776;28;20038;-74
2021/04/18 08:45:04;;;;;;;13.57;6.13;;;8.30;92.80;;;;;;5003189;28;20376;-74
2021/04/18 08:47:31;;;;;;;13.32;6.78;;;8.30;92.30;;;;;;4998361;28;20108;-76
2021/04/18 08:50:14;;;;;;;24.15;6.63;;;8.30;91.20;;;;;;5003418;28;20042;-74
2021/04/18 08:52:39;;;;;;;17.00;8.00;;;8.20;90.90;;;;;;5002279;28;20034;-74
2021/04/18 08:55:10;;;;;;;15.73;6.80;;;8.30;91.40;;;;;;5002749;28;20099;-74
2021/04/18 08:57:36;;;;;;;14.38;5.85;;;8.40;91.00;;;;;;5000949;28;20649;-73
2021/04/18 09:00:12;;;;;;;13.93;6.10;;;8.50;90.50;;;;;;5000126;28;20082;-73
2021/04/18 09:02:38;;;;;;;13.25;6.60;;;8.60;91.00;;;;;;4999412;28;20057;-77
2021/04/18 09:05:09;;;;;;;17.77;7.32;;;8.70;90.70;;;;;;5000785;28;20428;-73
2021/04/18 09:07:36;;;;;;;14.63;6.40;;;8.70;90.10;;;;;;5002204;28;20064;-75
2021/04/18 09:10:11;;;;;;;10.40;5.72;;;8.40;87.80;;;;;;4996374;28;20037;-75
2021/04/18 09:12:37;;;;;;;10.98;6.53;;;8.50;89.90;;;;;;5004043;28;20034;-75
2021/04/18 09:15:04;;;;;;;12.88;6.38;;;8.60;90.10;;;;;;5000594;28;20045;-74
2021/04/18 09:17:34;;;;;;;13.13;6.45;;;8.70;88.90;;;;;;5002838;28;20145;-73
2021/04/18 09:20:07;;;;;;;10.95;6.38;;;8.80;89.60;;;;;;5003969;28;20037;-73
2021/04/18 09:22:36;;;;;;;21.02;8.25;;;8.80;87.70;;;;;;4997081;28;20144;-74
2021/04/18 09:25:22;;;;;;;12.98;7.00;;;8.60;87.50;;;;;;5001245;28;20049;-75
2021/04/18 09:27:52;;;;;;;19.10;8.00;;;8.70;87.30;;;;;;5001402;28;20526;-74
2021/04/18 09:30:27;;;;;;;13.02;6.40;;;9.00;87.20;;;;;;4997627;28;20145;-73
2021/04/18 09:32:54;;;;;;;13.60;6.95;;;8.90;86.40;;;;;;4992734;28;20041;-74
2021/04/18 09:35:22;;;;;;;17.23;6.72;;;9.10;86.70;;;;;;5003033;28;20041;-75
2021/04/18 09:37:56;;;;;;;21.58;7.93;;;9.00;84.70;;;;;;4990104;28;20193;-74
2021/04/18 09:40:24;;;;;;;21.30;7.43;;;9.00;83.40;;;;;;4996322;28;20112;-74
2021/04/18 09:42:51;;;;;;;13.52;6.53;;;9.20;84.20;;;;;;4997295;28;20060;-74
2021/04/18 09:45:18;;;;;;;14.40;6.60;;;9.30;84.20;;;;;;4989011;28;20049;-73
2021/04/18 09:47:46;;;;;;;15.70;6.63;;;9.30;83.30;;;;;;4993703;28;20038;-73
2021/04/18 09:50:33;;;;;;;16.80;7.00;;;9.10;81.90;;;;;;4997756;28;20042;-76
2021/04/18 09:53:19;;;;;;;15.90;6.22;;;9.00;81.60;;;;;;5000057;28;20641;-73
2021/04/18 09:55:58;;;;;;;16.05;6.78;;;9.00;82.90;;;;;;4998989;28;20180;-74
2021/04/18 09:58:26;;;;;;;13.85;7.15;;;9.20;84.10;;;;;;5003496;28;20406;-73
2021/04/18 10:00:52;;;;;;;12.45;6.20;;;9.50;84.30;;;;;;5000155;28;20040;-74
2021/04/18 10:03:17;;;;;;;17.75;7.20;;;9.50;79.60;;;;;;4998244;28;20588;-75
2021/04/18 10:05:46;;;;;;;18.52;6.93;;;9.60;79.50;;;;;;4996831;28;20037;-74
2021/04/18 10:08:22;;;;;;;15.80;6.63;;;9.60;78.60;;;;;;4990715;28;20728;-74
2021/04/18 10:11:08;;;;;;;18.92;7.38;;;9.20;77.10;;;;;;5008851;28;20101;-74
2021/04/18 10:13:48;;;;;;;18.98;7.93;;;9.50;78.60;;;;;;4996054;28;20050;-74
2021/04/18 10:16:14;;;;;;;16.13;7.97;;;9.70;76.40;;;;;;4993742;28;20120;-74
2021/04/18 10:19:01;;;;;;;14.85;7.28;;;9.80;76.80;;;;;;4997696;28;20538;-74
2021/04/18 10:21:27;;;;;;;16.40;7.63;;;10.00;75.60;;;;;;4999077;28;20049;-74
2021/04/18 10:23:52;;;;;;;13.15;7.50;;;10.20;74.70;;;;;;4991754;28;20045;-74
2021/04/18 10:26:20;;;;;;;12.98;7.60;;;10.40;71.80;;;;;;4995367;28;20072;-73
2021/04/18 10:28:47;;;;;;;18.45;7.50;;;10.50;70.20;;;;;;4992274;28;20385;-74
2021/04/18 10:31:14;;;;;;;18.35;8.27;;;10.60;69.80;;;;;;5013342;28;20101;-75
2021/04/18 10:33:40;;;;;;;18.52;8.48;;;10.90;69.60;;;;;;5000250;28;20057;-74
2021/04/18 10:36:07;;;;;;;16.05;7.35;;;11.00;68.50;;;;;;4999106;28;20042;-75
2021/04/18 10:38:33;;;;;;;23.65;8.25;;;11.20;67.40;;;;;;4998625;28;20065;-73
2021/04/18 10:40:58;;;;;;;14.40;8.02;;;11.00;66.90;;;;;;5000031;28;20034;-74
2021/04/18 10:43:24;;;;;;;17.77;7.45;;;10.70;67.90;;;;;;5001912;28;20041;-73
2021/04/18 10:45:50;;;;;;;15.35;7.50;;;10.80;67.90;;;;;;4999382;28;20494;-73
2021/04/18 10:48:16;;;;;;;18.95;8.48;;;10.70;67.70;;;;;;5000406;28;20034;-73
2021/04/18 10:50:41;;;;;;;19.90;7.90;;;10.70;69.30;;;;;;5001388;28;20057;-74
2021/04/18 10:53:07;;;;;;;15.70;6.90;;;10.80;68.60;;;;;;5006819;28;20084;-74
2021/04/18 10:55:32;;;;;;;12.23;6.80;;;10.90;68.00;;;;;;5002202;28;20046;-74
2021/04/18 10:57:58;;;;;;;15.35;8.52;;;11.10;67.60;;;;;;5000320;28;20049;-73
2021/04/18 11:00:24;;;;;;;16.42;8.23;;;11.10;68.10;;;;;;5004908;28;20049;-73
2021/04/18 11:02:49;;;;;;;18.30;7.30;;;11.00;67.40;;;;;;4997246;28;20042;-72
2021/04/18 11:05:15;;;;;;;12.75;7.00;;;11.00;66.60;;;;;;5001424;28;20034;-74
2021/04/18 11:07:41;;;;;;;15.77;7.68;;;10.60;66.60;;;;;;4996982;28;20038;-74
2021/04/18 11:10:07;;;;;;;16.20;7.68;;;11.00;66.80;;;;;;5009045;28;20046;-74
2021/04/18 11:12:33;;;;;;;15.93;7.10;;;11.40;66.40;;;;;;5006470;28;20363;-74
2021/04/18 11:14:59;;;;;;;13.07;7.18;;;11.90;65.00;;;;;;4996100;28;20065;-74
2021/04/18 11:17:25;;;;;;;12.15;6.63;;;12.00;62.60;;;;;;5000025;28;20057;-73
2021/04/18 11:19:52;;;;;;;18.63;7.53;;;11.30;61.80;;;;;;5001308;28;20116;-73
2021/04/18 11:22:19;;;;;;;13.15;6.75;;;11.40;64.30;;;;;;4993503;28;20513;-74
2021/04/18 11:24:44;;;;;;;15.38;6.72;;;11.30;62.00;;;;;;4996192;28;20042;-74
2021/04/18 11:27:10;;;;;;;14.05;6.07;;;11.50;62.30;;;;;;5023835;28;20091;-73
2021/04/18 11:29:42;;;;;;;16.33;7.38;;;11.50;62.70;;;;;;5002259;28;20037;-75
2021/04/18 11:32:09;;;;;;;16.67;6.50;;;11.60;62.50;;;;;;4993717;28;20057;-73
2021/04/18 11:34:36;;;;;;;14.25;6.53;;;11.40;62.50;;;;;;4998885;28;20406;-74
2021/04/18 11:37:02;;;;;;;17.25;8.00;;;11.50;62.50;;;;;;4991797;28;20057;-74
2021/04/18 11:39:28;;;;;;;13.60;6.28;;;11.20;62.80;;;;;;5004463;28;20045;-73
2021/04/18 11:41:54;;;;;;;11.48;6.15;;;11.30;63.10;;;;;;4998542;28;20054;-73
2021/04/18 11:44:20;;;;;;;11.52;6.50;;;11.20;63.00;;;;;;5001564;28;20156;-75
2021/04/18 11:46:46;;;;;;;15.13;7.28;;;11.50;63.20;;;;;;4999970;28;20058;-76
2021/04/18 11:49:12;;;;;;;13.23;6.80;;;11.30;62.20;;;;;;4990985;28;20117;-75
2021/04/18 11:51:38;;;;;;;12.98;7.13;;;11.30;61.90;;;;;;4998079;28;20089;-75
2021/04/18 11:54:05;;;;;;;18.48;7.47;;;11.50;62.60;;;;;;4986145;28;20049;-76
2021/04/18 11:56:32;;;;;;;11.02;6.38;;;11.30;62.70;;;;;;5000462;28;20037;-75
2021/04/18 11:58:58;;;;;;;11.55;5.93;;;11.60;63.80;;;;;;4995140;28;20052;-75
2021/04/18 12:01:23;;;;;;;13.40;7.75;;;11.30;62.60;;;;;;4995435;28;20125;-75
2021/04/18 12:03:49;;;;;;;11.18;5.97;;;11.60;62.50;;;;;;4998319;28;20770;-73
2021/04/18 12:06:15;;;;;;;13.85;6.18;;;11.30;61.20;;;;;;5002288;28;20111;-74
2021/04/18 12:08:40;;;;;;;16.10;6.43;;;11.30;61.10;;;;;;5002101;28;20095;-75
2021/04/18 12:11:06;;;;;;;14.55;6.65;;;11.10;62.40;;;;;;5010384;28;20137;-74
2021/04/18 12:13:31;;;;;;;13.10;7.57;;;11.00;64.20;;;;;;5002709;28;20034;-74
2021/04/18 12:15:57;;;;;;;11.27;6.38;;;10.90;63.70;;;;;;5005236;28;20045;-76
2021/04/18 12:18:23;;;;;;;13.32;6.88;;;11.00;63.30;;;;;;5006179;28;20058;-74
2021/04/18 12:20:49;;;;;;;16.75;7.10;;;11.20;67.40;;;;;;5003890;28;20046;-75
2021/04/18 12:23:15;;;;;;;12.48;6.40;;;11.30;64.90;;;;;;5001571;28;20750;-75
2021/04/18 12:25:41;;;;;;;11.85;6.40;;;11.30;64.40;;;;;;5004370;28;20474;-75
2021/04/18 12:28:08;;;;;;;14.52;6.70;;;11.10;64.30;;;;;;5005181;28;20034;-77
2021/04/18 12:30:34;;;;;;;11.95;6.88;;;11.30;64.80;;;;;;5003782;28;20029;-74
2021/04/18 12:32:59;;;;;;;13.48;7.15;;;11.40;64.40;;;;;;4999024;28;20388;-73
2021/04/18 12:35:25;;;;;;;15.00;6.85;;;11.60;63.80;;;;;;5012609;28;20038;-74
2021/04/18 12:37:52;;;;;;;13.45;6.68;;;11.90;64.00;;;;;;5010664;28;20510;-74
2021/04/18 12:40:17;;;;;;;13.15;6.68;;;11.70;63.90;;;;;;5005094;28;20569;-74
2021/04/18 12:42:43;;;;;;;11.88;6.90;;;11.10;62.20;;;;;;5002312;28;20060;-74
2021/04/18 12:45:10;;;;;;;11.20;6.50;;;11.50;63.70;;;;;;4999897;28;20044;-74